BAW81 EGLL-DGAA
Flight info
| Callsign | BAW81 |
|---|---|
| Flight time | N/A |
| Altitude | 37000 |
| Route | MAXIT Y803 MID L151 SITET UN859 SOPIL DCT BALAN DCT EVPOK DCT NARAK DCT GAI DCT LOMRA DCT ROCAN DCT PUMAL DCT XEPLA DCT BCN DCT GARBI DCT LARPA DCT TOLSO DCT LISAS DCT MJV N859 MOGIL UB31 ZEM UZ333 KAHIL UB726 GHA UA615 TMS UA604 EREBO DCT MIGNI DCT ABALA DCT IPUTA DCT TATAT DCT KILMO DCT LITEX LITEX1B |
| Aircraft | A35K/H-SDE2E3GHIJ3J4J5LM1ORWXY/LB1D1 |
Departure
| Time | 2026-05-04 10:22 |
|---|---|
| Airport | London Heathrow Airport (EGLL) |
Arrival
| Time | N/A |
|---|---|
| Airport | Kotoka International Airport (DGAA) |
| Time | Latitude | Longitude | Altitude | Speed | Heading |
|---|---|---|---|---|---|
| 2026-05-04 09:26 | 51.47248 | -0.48277 | 96 ft | 0 kts | 89° |
| 2026-05-04 10:08 | 51.47248 | -0.48292 | 95 ft | 4 kts | 91° |
| 2026-05-04 10:08 | 51.47247 | -0.48318 | 92 ft | 3 kts | 124° |
| 2026-05-04 10:08 | 51.47259 | -0.48345 | 95 ft | 4 kts | 145° |
| 2026-05-04 10:08 | 51.47279 | -0.48359 | 93 ft | 4 kts | 175° |
| 2026-05-04 10:09 | 51.47305 | -0.48360 | 93 ft | 3 kts | 179° |
| 2026-05-04 10:09 | 51.47308 | -0.48360 | 93 ft | 4 kts | 179° |
| 2026-05-04 10:11 | 51.47300 | -0.48359 | 93 ft | 3 kts | 178° |
| 2026-05-04 10:11 | 51.47258 | -0.48358 | 93 ft | 9 kts | 180° |
| 2026-05-04 10:12 | 51.47182 | -0.48358 | 96 ft | 11 kts | 180° |
| 2026-05-04 10:12 | 51.47106 | -0.48358 | 97 ft | 9 kts | 180° |
| 2026-05-04 10:12 | 51.47040 | -0.48358 | 96 ft | 11 kts | 180° |
| 2026-05-04 10:12 | 51.46959 | -0.48354 | 96 ft | 12 kts | 176° |
| 2026-05-04 10:13 | 51.46872 | -0.48354 | 92 ft | 12 kts | 180° |
| 2026-05-04 10:13 | 51.46811 | -0.48354 | 93 ft | 8 kts | 176° |
| 2026-05-04 10:13 | 51.46763 | -0.48315 | 98 ft | 7 kts | 136° |
| 2026-05-04 10:13 | 51.46745 | -0.48239 | 95 ft | 9 kts | 98° |
| 2026-05-04 10:14 | 51.46742 | -0.48119 | 91 ft | 13 kts | 90° |
| 2026-05-04 10:14 | 51.46742 | -0.47957 | 90 ft | 15 kts | 89° |
| 2026-05-04 10:16 | 51.46746 | -0.46714 | 98 ft | 15 kts | 88° |
| 2026-05-04 10:16 | 51.46749 | -0.46534 | 94 ft | 17 kts | 88° |
| 2026-05-04 10:16 | 51.46705 | -0.46417 | 96 ft | 11 kts | 148° |
| 2026-05-04 10:16 | 51.46660 | -0.46318 | 96 ft | 12 kts | 102° |
| 2026-05-04 10:17 | 51.46659 | -0.46172 | 94 ft | 15 kts | 89° |
| 2026-05-04 10:17 | 51.46660 | -0.45992 | 88 ft | 17 kts | 90° |
| 2026-05-04 10:19 | 51.46666 | -0.44583 | 94 ft | 17 kts | 90° |
| 2026-05-04 10:19 | 51.46665 | -0.44415 | 92 ft | 12 kts | 90° |
| 2026-05-04 10:19 | 51.46666 | -0.44262 | 90 ft | 15 kts | 90° |
| 2026-05-04 10:19 | 51.46647 | -0.44097 | 92 ft | 15 kts | 132° |
| 2026-05-04 10:20 | 51.46589 | -0.44056 | 92 ft | 13 kts | 168° |
| 2026-05-04 10:20 | 51.46510 | -0.44077 | 92 ft | 11 kts | 218° |
| 2026-05-04 10:20 | 51.46494 | -0.44166 | 89 ft | 0 kts | 268° |
| 2026-05-04 10:21 | 51.46493 | -0.44198 | 90 ft | 16 kts | 268° |
| 2026-05-04 10:21 | 51.46489 | -0.44757 | 95 ft | 83 kts | 270° |
| 2026-05-04 10:21 | 51.46487 | -0.46030 | 92 ft | 141 kts | 269° |
| 2026-05-04 10:21 | 51.46480 | -0.47828 | 385 ft | 164 kts | 271° |
| 2026-05-04 10:22 | 51.46371 | -0.51565 | 1609 ft | 181 kts | 267° |
| 2026-05-04 10:22 | 51.46220 | -0.53670 | 2018 ft | 200 kts | 256° |
| 2026-05-04 10:22 | 51.45586 | -0.55731 | 2485 ft | 212 kts | 238° |
| 2026-05-04 10:23 | 51.44755 | -0.57766 | 2961 ft | 225 kts | 233° |
| 2026-05-04 10:23 | 51.43540 | -0.59491 | 3332 ft | 245 kts | 206° |
| 2026-05-04 10:25 | 51.31296 | -0.56411 | 8293 ft | 272 kts | 162° |
| 2026-05-04 10:25 | 51.29463 | -0.55618 | 9112 ft | 274 kts | 174° |
| 2026-05-04 10:25 | 51.27572 | -0.55669 | 9986 ft | 274 kts | 187° |
| 2026-05-04 10:25 | 51.25643 | -0.56028 | 10626 ft | 283 kts | 188° |
| 2026-05-04 10:26 | 51.23653 | -0.56513 | 11124 ft | 298 kts | 191° |
| 2026-05-04 10:26 | 51.21555 | -0.57151 | 11531 ft | 315 kts | 192° |
| 2026-05-04 10:26 | 51.19358 | -0.57887 | 11950 ft | 331 kts | 192° |
| 2026-05-04 10:26 | 51.17057 | -0.58674 | 12360 ft | 346 kts | 192° |
| 2026-05-04 10:27 | 51.14650 | -0.59488 | 12823 ft | 359 kts | 192° |
| 2026-05-04 10:27 | 51.12181 | -0.60307 | 13455 ft | 366 kts | 192° |
| 2026-05-04 10:27 | 51.09662 | -0.61088 | 14103 ft | 371 kts | 189° |
| 2026-05-04 10:27 | 51.07079 | -0.61463 | 14761 ft | 376 kts | 181° |
| 2026-05-04 10:28 | 51.04452 | -0.61192 | 15417 ft | 381 kts | 172° |
| 2026-05-04 10:28 | 51.01869 | -0.60182 | 16065 ft | 386 kts | 163° |
| 2026-05-04 10:28 | 50.99332 | -0.58714 | 16730 ft | 390 kts | 160° |
| 2026-05-04 10:28 | 50.96810 | -0.57064 | 17417 ft | 394 kts | 159° |
| 2026-05-04 10:29 | 50.94283 | -0.55333 | 18102 ft | 398 kts | 158° |
| 2026-05-04 10:29 | 50.91731 | -0.53576 | 18730 ft | 401 kts | 158° |
| 2026-05-04 10:29 | 50.89179 | -0.51837 | 19351 ft | 404 kts | 159° |
| 2026-05-04 10:29 | 50.86583 | -0.50096 | 19993 ft | 408 kts | 159° |
| 2026-05-04 10:30 | 50.83952 | -0.48353 | 20643 ft | 411 kts | 159° |
| 2026-05-04 10:30 | 50.81306 | -0.46614 | 21263 ft | 414 kts | 159° |
| 2026-05-04 10:30 | 50.78631 | -0.44863 | 21902 ft | 417 kts | 159° |
| 2026-05-04 10:30 | 50.75934 | -0.43102 | 22526 ft | 420 kts | 159° |
| 2026-05-04 10:31 | 50.73223 | -0.41335 | 23167 ft | 424 kts | 159° |
| 2026-05-04 10:31 | 50.70486 | -0.39551 | 23752 ft | 427 kts | 159° |
| 2026-05-04 10:32 | 50.53843 | -0.28739 | 27179 ft | 436 kts | 160° |
| 2026-05-04 10:33 | 50.51026 | -0.26918 | 27714 ft | 438 kts | 160° |
| 2026-05-04 10:33 | 50.48204 | -0.25097 | 28241 ft | 441 kts | 160° |
| 2026-05-04 10:33 | 50.45358 | -0.23262 | 28742 ft | 443 kts | 160° |
| 2026-05-04 10:33 | 50.42497 | -0.21420 | 29237 ft | 445 kts | 161° |
| 2026-05-04 10:34 | 50.39631 | -0.19577 | 29698 ft | 447 kts | 161° |
| 2026-05-04 10:34 | 50.36740 | -0.17719 | 30122 ft | 450 kts | 161° |
| 2026-05-04 10:34 | 50.33832 | -0.15853 | 30463 ft | 452 kts | 161° |
| 2026-05-04 10:34 | 50.30924 | -0.13989 | 30878 ft | 453 kts | 161° |
| 2026-05-04 10:35 | 50.28001 | -0.12116 | 31278 ft | 454 kts | 161° |
| 2026-05-04 10:35 | 50.25075 | -0.10245 | 31665 ft | 454 kts | 161° |
| 2026-05-04 10:35 | 50.22153 | -0.08380 | 32044 ft | 455 kts | 161° |
| 2026-05-04 10:35 | 50.19220 | -0.06501 | 32447 ft | 455 kts | 160° |
| 2026-05-04 10:36 | 50.16306 | -0.04532 | 32837 ft | 456 kts | 159° |
| 2026-05-04 10:36 | 50.13416 | -0.02504 | 33226 ft | 457 kts | 159° |
| 2026-05-04 10:36 | 50.10496 | -0.00554 | 33591 ft | 455 kts | 162° |
| 2026-05-04 10:36 | 50.07481 | 0.00936 | 33975 ft | 453 kts | 167° |
| 2026-05-04 10:37 | 50.04448 | 0.02237 | 34278 ft | 453 kts | 167° |
| 2026-05-04 10:37 | 50.01390 | 0.03472 | 34544 ft | 454 kts | 168° |
| 2026-05-04 10:37 | 49.98322 | 0.04672 | 34815 ft | 454 kts | 168° |
| 2026-05-04 10:37 | 49.95259 | 0.05857 | 35080 ft | 455 kts | 168° |
| 2026-05-04 10:39 | 49.76768 | 0.13052 | 36548 ft | 459 kts | 168° |
| 2026-05-04 10:39 | 49.73666 | 0.14261 | 36797 ft | 459 kts | 168° |
| 2026-05-04 10:39 | 49.70573 | 0.15465 | 36978 ft | 460 kts | 168° |
| 2026-05-04 10:40 | 49.67454 | 0.16676 | 37019 ft | 465 kts | 168° |
| 2026-05-04 10:40 | 49.61155 | 0.19196 | 37018 ft | 467 kts | 168° |
| 2026-05-04 10:41 | 49.54886 | 0.21742 | 37017 ft | 466 kts | 168° |
| 2026-05-04 10:41 | 49.48621 | 0.24270 | 37018 ft | 466 kts | 168° |
| 2026-05-04 10:42 | 49.42355 | 0.26779 | 36992 ft | 465 kts | 168° |
| 2026-05-04 10:42 | 49.36080 | 0.29284 | 36993 ft | 465 kts | 168° |
| 2026-05-04 10:43 | 49.29820 | 0.31779 | 36992 ft | 465 kts | 168° |
| 2026-05-04 10:45 | 49.04836 | 0.42311 | 36973 ft | 465 kts | 167° |
| 2026-05-04 10:45 | 48.98597 | 0.44916 | 36969 ft | 465 kts | 167° |
| 2026-05-04 10:46 | 48.92390 | 0.47503 | 36967 ft | 465 kts | 168° |
| 2026-05-04 10:46 | 48.86141 | 0.50098 | 36967 ft | 465 kts | 168° |
| 2026-05-04 10:47 | 48.79906 | 0.52682 | 36962 ft | 465 kts | 168° |
| 2026-05-04 10:47 | 48.73657 | 0.55219 | 36963 ft | 465 kts | 168° |
| 2026-05-04 10:49 | 48.48618 | 0.64946 | 36958 ft | 464 kts | 168° |
| 2026-05-04 10:50 | 48.42391 | 0.67491 | 36956 ft | 464 kts | 168° |
| 2026-05-04 10:52 | 48.17452 | 0.77575 | 36955 ft | 463 kts | 169° |
| 2026-05-04 10:52 | 48.11232 | 0.80000 | 36951 ft | 463 kts | 169° |
| 2026-05-04 10:54 | 47.86310 | 0.89721 | 36944 ft | 462 kts | 169° |
| 2026-05-04 10:56 | 47.61430 | 0.99344 | 36953 ft | 461 kts | 169° |
| 2026-05-04 10:57 | 47.55223 | 1.01729 | 36956 ft | 461 kts | 169° |
| 2026-05-04 10:57 | 47.49023 | 1.04105 | 36955 ft | 461 kts | 169° |
| 2026-05-04 10:58 | 47.43847 | 1.05900 | 36954 ft | 457 kts | 175° |
| 2026-05-04 10:58 | 47.37540 | 1.06385 | 36953 ft | 452 kts | 183° |
| 2026-05-04 10:59 | 47.31257 | 1.06255 | 36953 ft | 451 kts | 184° |
| 2026-05-04 10:59 | 47.24982 | 1.06055 | 36947 ft | 451 kts | 184° |
| 2026-05-04 11:00 | 47.18703 | 1.05882 | 36946 ft | 450 kts | 184° |
| 2026-05-04 11:02 | 46.93681 | 1.05169 | 36948 ft | 448 kts | 185° |
| 2026-05-04 11:05 | 46.46956 | 1.04850 | 36947 ft | 455 kts | 172° |
| 2026-05-04 11:06 | 46.40766 | 1.06889 | 36948 ft | 456 kts | 171° |
| 2026-05-04 11:06 | 46.34583 | 1.09005 | 36943 ft | 457 kts | 171° |
| 2026-05-04 11:10 | 45.91233 | 1.23368 | 36970 ft | 457 kts | 172° |
| 2026-05-04 11:12 | 45.66460 | 1.31458 | 36960 ft | 457 kts | 172° |
| 2026-05-04 11:12 | 45.60285 | 1.33464 | 36955 ft | 457 kts | 172° |
| 2026-05-04 11:13 | 45.54060 | 1.35481 | 36952 ft | 457 kts | 172° |
| 2026-05-04 11:13 | 45.47857 | 1.37486 | 36948 ft | 457 kts | 172° |
| 2026-05-04 11:14 | 45.46815 | 1.37823 | 36946 ft | 457 kts | 172° |
| 2026-05-04 11:16 | 45.16810 | 1.47455 | 36966 ft | 458 kts | 172° |
| 2026-05-04 11:16 | 45.10585 | 1.49439 | 36965 ft | 458 kts | 172° |
| 2026-05-04 11:17 | 45.04374 | 1.51416 | 36970 ft | 458 kts | 172° |
| 2026-05-04 11:19 | 44.79480 | 1.59293 | 36957 ft | 458 kts | 171° |
| 2026-05-04 11:19 | 44.73284 | 1.61242 | 36948 ft | 458 kts | 172° |
| 2026-05-04 11:20 | 44.67055 | 1.63197 | 36960 ft | 458 kts | 171° |
| 2026-05-04 11:20 | 44.60839 | 1.65143 | 36950 ft | 458 kts | 172° |
| 2026-05-04 11:22 | 44.35931 | 1.72907 | 36954 ft | 458 kts | 172° |
| 2026-05-04 11:23 | 44.29711 | 1.74836 | 36956 ft | 458 kts | 172° |
| 2026-05-04 11:25 | 44.07785 | 1.79697 | 36955 ft | 456 kts | 175° |
| 2026-05-04 11:25 | 44.01516 | 1.81069 | 36963 ft | 456 kts | 175° |
| 2026-05-04 11:27 | 43.73260 | 1.84567 | 36958 ft | 452 kts | 181° |
| 2026-05-04 11:28 | 43.66984 | 1.85167 | 36960 ft | 452 kts | 180° |
| 2026-05-04 11:28 | 43.60743 | 1.85779 | 36964 ft | 452 kts | 180° |
| 2026-05-04 11:29 | 43.54474 | 1.86387 | 36964 ft | 452 kts | 181° |
| 2026-05-04 11:29 | 43.48206 | 1.86990 | 36964 ft | 451 kts | 181° |
| 2026-05-04 11:33 | 43.04419 | 1.91172 | 36949 ft | 450 kts | 181° |
| 2026-05-04 11:33 | 42.98162 | 1.91764 | 36943 ft | 450 kts | 181° |
| 2026-05-04 11:34 | 42.91912 | 1.92356 | 36936 ft | 450 kts | 181° |
| 2026-05-04 11:34 | 42.85670 | 1.92948 | 36941 ft | 449 kts | 181° |
| 2026-05-04 11:35 | 42.79472 | 1.93532 | 36944 ft | 449 kts | 181° |
| 2026-05-04 11:35 | 42.73250 | 1.94119 | 36944 ft | 448 kts | 182° |
| 2026-05-04 11:36 | 42.67018 | 1.94702 | 36955 ft | 449 kts | 182° |
| 2026-05-04 11:36 | 42.60788 | 1.95694 | 36948 ft | 452 kts | 177° |
| 2026-05-04 11:37 | 42.54578 | 1.97115 | 36953 ft | 453 kts | 176° |
| 2026-05-04 11:37 | 42.48357 | 1.98487 | 36949 ft | 453 kts | 177° |
| 2026-05-04 11:38 | 42.42131 | 1.99767 | 36949 ft | 452 kts | 178° |
| 2026-05-04 11:38 | 42.35903 | 2.01016 | 36944 ft | 452 kts | 178° |
| 2026-05-04 11:39 | 42.29668 | 2.01804 | 36960 ft | 448 kts | 183° |
| 2026-05-04 11:41 | 42.08874 | 2.03477 | 36947 ft | 449 kts | 182° |
| 2026-05-04 11:41 | 42.02638 | 2.04072 | 36943 ft | 449 kts | 182° |
| 2026-05-04 11:42 | 41.96405 | 2.04662 | 36942 ft | 450 kts | 182° |
| 2026-05-04 11:42 | 41.90188 | 2.05249 | 36941 ft | 449 kts | 182° |
| 2026-05-04 11:43 | 41.83966 | 2.05834 | 36936 ft | 448 kts | 182° |
| 2026-05-04 11:43 | 41.77734 | 2.06414 | 36942 ft | 448 kts | 182° |
| 2026-05-04 11:44 | 41.71525 | 2.06991 | 36940 ft | 448 kts | 182° |
| 2026-05-04 11:44 | 41.65315 | 2.07576 | 36948 ft | 447 kts | 182° |
| 2026-05-04 11:45 | 41.59117 | 2.08156 | 36940 ft | 446 kts | 182° |
| 2026-05-04 11:45 | 41.52924 | 2.08730 | 36946 ft | 446 kts | 182° |
| 2026-05-04 11:46 | 41.46736 | 2.09302 | 36935 ft | 446 kts | 182° |
| 2026-05-04 11:46 | 41.40581 | 2.09873 | 36939 ft | 446 kts | 182° |
| 2026-05-04 11:47 | 41.34396 | 2.10448 | 36964 ft | 445 kts | 183° |
| 2026-05-04 11:47 | 41.28223 | 2.11692 | 36962 ft | 454 kts | 174° |
| 2026-05-04 11:48 | 41.22089 | 2.13796 | 36962 ft | 456 kts | 172° |
| 2026-05-04 11:48 | 41.15927 | 2.16029 | 36963 ft | 456 kts | 172° |
| 2026-05-04 11:49 | 41.09810 | 2.18232 | 36961 ft | 455 kts | 173° |
| 2026-05-04 11:49 | 41.03718 | 2.20401 | 36962 ft | 455 kts | 173° |
| 2026-05-04 11:50 | 40.97567 | 2.22581 | 36962 ft | 455 kts | 173° |
| 2026-05-04 11:50 | 40.91460 | 2.24740 | 36961 ft | 454 kts | 173° |
| 2026-05-04 11:51 | 40.85386 | 2.26884 | 36962 ft | 454 kts | 173° |
| 2026-05-04 11:51 | 40.79282 | 2.29034 | 36962 ft | 454 kts | 173° |
| 2026-05-04 11:52 | 40.73137 | 2.31199 | 36961 ft | 454 kts | 173° |
| 2026-05-04 11:52 | 40.67060 | 2.33327 | 36965 ft | 454 kts | 173° |
| 2026-05-04 11:53 | 40.60953 | 2.35466 | 36967 ft | 454 kts | 173° |
| 2026-05-04 11:53 | 40.54843 | 2.37607 | 36968 ft | 455 kts | 173° |
| 2026-05-04 11:55 | 40.30347 | 2.46123 | 36965 ft | 455 kts | 173° |
| 2026-05-04 11:56 | 40.24216 | 2.48247 | 36979 ft | 456 kts | 173° |
| 2026-05-04 11:56 | 40.18084 | 2.50370 | 36977 ft | 456 kts | 173° |
| 2026-05-04 11:57 | 40.11939 | 2.52494 | 36973 ft | 456 kts | 173° |
| 2026-05-04 11:57 | 40.05800 | 2.54605 | 36972 ft | 457 kts | 173° |
| 2026-05-04 11:58 | 39.99652 | 2.56716 | 36973 ft | 457 kts | 173° |
| 2026-05-04 11:58 | 39.93490 | 2.58829 | 36970 ft | 458 kts | 173° |
| 2026-05-04 11:59 | 39.87329 | 2.60940 | 36974 ft | 458 kts | 172° |
| 2026-05-04 11:59 | 39.81164 | 2.63048 | 36979 ft | 458 kts | 172° |
| 2026-05-04 12:00 | 39.75029 | 2.65140 | 36981 ft | 459 kts | 172° |
| 2026-05-04 12:00 | 39.68844 | 2.67251 | 36981 ft | 460 kts | 173° |
| 2026-05-04 12:01 | 39.62652 | 2.69360 | 36992 ft | 460 kts | 172° |
| 2026-05-04 12:02 | 39.40968 | 2.76703 | 36994 ft | 460 kts | 172° |
| 2026-05-04 12:03 | 39.34778 | 2.78848 | 36987 ft | 461 kts | 172° |
| 2026-05-04 12:03 | 39.28584 | 2.80999 | 36981 ft | 460 kts | 172° |
| 2026-05-04 12:04 | 39.22391 | 2.83141 | 36982 ft | 460 kts | 172° |
| 2026-05-04 12:04 | 39.16204 | 2.85273 | 36980 ft | 459 kts | 172° |
| 2026-05-04 12:05 | 39.10035 | 2.87394 | 36986 ft | 459 kts | 173° |
| 2026-05-04 12:05 | 39.03870 | 2.89508 | 36984 ft | 458 kts | 173° |
| 2026-05-04 12:06 | 38.97739 | 2.91612 | 36988 ft | 458 kts | 173° |
| 2026-05-04 12:06 | 38.91582 | 2.93729 | 36992 ft | 458 kts | 173° |
| 2026-05-04 12:07 | 38.85425 | 2.95833 | 36995 ft | 458 kts | 173° |
| 2026-05-04 12:07 | 38.79258 | 2.97930 | 36990 ft | 458 kts | 173° |
| 2026-05-04 12:08 | 38.73093 | 3.00023 | 36998 ft | 459 kts | 173° |
| 2026-05-04 12:08 | 38.66919 | 3.02116 | 37000 ft | 460 kts | 173° |
| 2026-05-04 12:09 | 38.60723 | 3.04212 | 36999 ft | 460 kts | 173° |
| 2026-05-04 12:09 | 38.54531 | 3.06305 | 37003 ft | 461 kts | 173° |
| 2026-05-04 12:10 | 38.48321 | 3.08401 | 37006 ft | 461 kts | 173° |
| 2026-05-04 12:10 | 38.42117 | 3.10493 | 37007 ft | 461 kts | 173° |
| 2026-05-04 12:11 | 38.35939 | 3.12570 | 37015 ft | 462 kts | 173° |
| 2026-05-04 12:11 | 38.29724 | 3.14655 | 37011 ft | 462 kts | 173° |
| 2026-05-04 12:12 | 38.23488 | 3.16751 | 37009 ft | 463 kts | 173° |
| 2026-05-04 12:12 | 38.17247 | 3.18838 | 37012 ft | 464 kts | 173° |
| 2026-05-04 12:14 | 37.92035 | 3.26120 | 37037 ft | 466 kts | 175° |
| 2026-05-04 12:15 | 37.85684 | 3.27886 | 37032 ft | 467 kts | 174° |
| 2026-05-04 12:15 | 37.79327 | 3.29661 | 37029 ft | 469 kts | 174° |
| 2026-05-04 12:16 | 37.72957 | 3.31437 | 37026 ft | 469 kts | 174° |
| 2026-05-04 12:16 | 37.66565 | 3.33213 | 37030 ft | 470 kts | 174° |
| 2026-05-04 12:17 | 37.60171 | 3.34986 | 37024 ft | 471 kts | 175° |
| 2026-05-04 12:17 | 37.53772 | 3.36756 | 37027 ft | 471 kts | 175° |
| 2026-05-04 12:18 | 37.47364 | 3.38525 | 37028 ft | 472 kts | 175° |
| 2026-05-04 12:18 | 37.40985 | 3.40285 | 37025 ft | 472 kts | 175° |
| 2026-05-04 12:19 | 37.34529 | 3.42063 | 37026 ft | 472 kts | 175° |
| 2026-05-04 12:19 | 37.28146 | 3.43817 | 37029 ft | 472 kts | 175° |
| 2026-05-04 12:20 | 37.21720 | 3.45578 | 37028 ft | 473 kts | 175° |
| 2026-05-04 12:20 | 37.15292 | 3.47338 | 37026 ft | 473 kts | 175° |
| 2026-05-04 12:21 | 37.08861 | 3.49097 | 37028 ft | 473 kts | 175° |
| 2026-05-04 12:21 | 37.02420 | 3.50855 | 37027 ft | 473 kts | 175° |
| 2026-05-04 12:22 | 36.95981 | 3.52609 | 37017 ft | 473 kts | 175° |
| 2026-05-04 12:22 | 36.89546 | 3.54358 | 37027 ft | 474 kts | 175° |
| 2026-05-04 12:23 | 36.84193 | 3.55811 | 37024 ft | 474 kts | 175° |
| 2026-05-04 12:23 | 36.77749 | 3.57547 | 37024 ft | 473 kts | 175° |
| 2026-05-04 12:24 | 36.71269 | 3.58765 | 37028 ft | 469 kts | 180° |
| 2026-05-04 12:24 | 36.64792 | 3.59732 | 37021 ft | 469 kts | 180° |
| 2026-05-04 12:25 | 36.58308 | 3.60774 | 37020 ft | 470 kts | 179° |
| 2026-05-04 12:25 | 36.51823 | 3.61884 | 37022 ft | 471 kts | 179° |
| 2026-05-04 12:26 | 36.45323 | 3.63014 | 37021 ft | 471 kts | 179° |
| 2026-05-04 12:26 | 36.38841 | 3.64142 | 37024 ft | 471 kts | 179° |
| 2026-05-04 12:27 | 36.32340 | 3.65264 | 37022 ft | 471 kts | 179° |
| 2026-05-04 12:27 | 36.25853 | 3.66380 | 37030 ft | 472 kts | 179° |
| 2026-05-04 12:28 | 36.19342 | 3.67499 | 37036 ft | 472 kts | 179° |
| 2026-05-04 12:28 | 36.12876 | 3.68609 | 37037 ft | 472 kts | 179° |
| 2026-05-04 12:29 | 36.06326 | 3.69730 | 37046 ft | 473 kts | 178° |
| 2026-05-04 12:29 | 35.99834 | 3.70841 | 37043 ft | 473 kts | 178° |
| 2026-05-04 12:30 | 35.93319 | 3.71955 | 37045 ft | 473 kts | 178° |
| 2026-05-04 12:30 | 35.86804 | 3.73065 | 37036 ft | 473 kts | 178° |
| 2026-05-04 12:31 | 35.80272 | 3.74177 | 37038 ft | 474 kts | 178° |
| 2026-05-04 12:31 | 35.73746 | 3.75286 | 37032 ft | 474 kts | 178° |
| 2026-05-04 12:32 | 35.63932 | 3.76953 | 37025 ft | 475 kts | 178° |
| 2026-05-04 12:33 | 35.57384 | 3.78066 | 37025 ft | 475 kts | 178° |
| 2026-05-04 12:33 | 35.50834 | 3.79171 | 37022 ft | 475 kts | 178° |
| 2026-05-04 12:34 | 35.44277 | 3.80275 | 37021 ft | 476 kts | 178° |
| 2026-05-04 12:34 | 35.37717 | 3.81381 | 37027 ft | 476 kts | 178° |
| 2026-05-04 12:35 | 35.31156 | 3.82484 | 37035 ft | 476 kts | 178° |
| 2026-05-04 12:35 | 35.24579 | 3.83588 | 37037 ft | 476 kts | 178° |
| 2026-05-04 12:36 | 35.18013 | 3.84688 | 37035 ft | 477 kts | 178° |
| 2026-05-04 12:36 | 35.11437 | 3.85789 | 37046 ft | 477 kts | 178° |
| 2026-05-04 12:37 | 35.04854 | 3.86889 | 37029 ft | 477 kts | 178° |
| 2026-05-04 12:37 | 34.98279 | 3.87988 | 37048 ft | 477 kts | 178° |
| 2026-05-04 12:38 | 34.91685 | 3.89086 | 37044 ft | 478 kts | 178° |
| 2026-05-04 12:38 | 34.85099 | 3.90181 | 37049 ft | 478 kts | 178° |
| 2026-05-04 12:39 | 34.78494 | 3.91279 | 37055 ft | 479 kts | 178° |
| 2026-05-04 12:39 | 34.71890 | 3.92375 | 37056 ft | 479 kts | 178° |
| 2026-05-04 12:40 | 34.65275 | 3.93470 | 37064 ft | 479 kts | 178° |
| 2026-05-04 12:40 | 34.58655 | 3.94565 | 37059 ft | 480 kts | 178° |
| 2026-05-04 12:41 | 34.52048 | 3.95654 | 37064 ft | 480 kts | 178° |
| 2026-05-04 12:41 | 34.45428 | 3.96744 | 37060 ft | 480 kts | 178° |
| 2026-05-04 12:42 | 34.38841 | 3.97827 | 37055 ft | 481 kts | 178° |
| 2026-05-04 12:42 | 34.32210 | 3.98918 | 37055 ft | 481 kts | 178° |
| 2026-05-04 12:43 | 34.25579 | 4.00005 | 37052 ft | 481 kts | 178° |
| 2026-05-04 12:43 | 34.18938 | 4.01092 | 37050 ft | 482 kts | 178° |
| 2026-05-04 12:44 | 34.12290 | 4.02155 | 37046 ft | 480 kts | 180° |
| 2026-05-04 12:44 | 34.05722 | 4.01995 | 37046 ft | 469 kts | 192° |
| 2026-05-04 12:45 | 33.99232 | 4.01093 | 37042 ft | 469 kts | 193° |
| 2026-05-04 12:45 | 33.92774 | 4.00101 | 37045 ft | 469 kts | 193° |
| 2026-05-04 12:46 | 33.86298 | 3.99122 | 37042 ft | 469 kts | 193° |
| 2026-05-04 12:46 | 33.79817 | 3.98162 | 37044 ft | 469 kts | 193° |
| 2026-05-04 12:47 | 33.73340 | 3.97213 | 37048 ft | 469 kts | 193° |
| 2026-05-04 12:47 | 33.66855 | 3.96263 | 37050 ft | 469 kts | 193° |
| 2026-05-04 12:48 | 33.60373 | 3.95315 | 37033 ft | 469 kts | 193° |
| 2026-05-04 12:48 | 33.53895 | 3.94368 | 37039 ft | 469 kts | 193° |
| 2026-05-04 12:49 | 33.47445 | 3.93426 | 37042 ft | 470 kts | 193° |
| 2026-05-04 12:49 | 33.40952 | 3.92480 | 37040 ft | 470 kts | 193° |
| 2026-05-04 12:50 | 33.34464 | 3.91536 | 37039 ft | 470 kts | 193° |
| 2026-05-04 12:50 | 33.27968 | 3.90593 | 37040 ft | 470 kts | 193° |
| 2026-05-04 12:51 | 33.21473 | 3.89651 | 37036 ft | 471 kts | 193° |
| 2026-05-04 12:51 | 33.14956 | 3.88707 | 37037 ft | 472 kts | 193° |
| 2026-05-04 12:52 | 33.08444 | 3.87764 | 37036 ft | 472 kts | 193° |
| 2026-05-04 12:52 | 33.01910 | 3.86823 | 37035 ft | 473 kts | 193° |
| 2026-05-04 12:53 | 32.95385 | 3.85883 | 37032 ft | 473 kts | 193° |
| 2026-05-04 12:53 | 32.88852 | 3.84930 | 37033 ft | 473 kts | 193° |
| 2026-05-04 12:54 | 32.82306 | 3.83979 | 37029 ft | 474 kts | 193° |
| 2026-05-04 12:54 | 32.75763 | 3.83033 | 37031 ft | 474 kts | 193° |
| 2026-05-04 12:55 | 32.69211 | 3.82087 | 37042 ft | 474 kts | 193° |
| 2026-05-04 12:55 | 32.62665 | 3.81144 | 37060 ft | 475 kts | 193° |
| 2026-05-04 12:56 | 32.56104 | 3.80199 | 37077 ft | 475 kts | 193° |
| 2026-05-04 12:56 | 32.49550 | 3.79259 | 37094 ft | 475 kts | 193° |
| 2026-05-04 12:57 | 32.42980 | 3.78319 | 37101 ft | 476 kts | 194° |
| 2026-05-04 12:57 | 32.36279 | 3.78370 | 37102 ft | 489 kts | 180° |
| 2026-05-04 12:58 | 32.29511 | 3.79513 | 37099 ft | 492 kts | 178° |
| 2026-05-04 12:58 | 32.22752 | 3.80808 | 37078 ft | 493 kts | 178° |
| 2026-05-04 12:59 | 32.16010 | 3.82089 | 37056 ft | 493 kts | 178° |
| 2026-05-04 12:59 | 32.09232 | 3.83347 | 37030 ft | 493 kts | 178° |
| 2026-05-04 13:00 | 32.02439 | 3.84594 | 37011 ft | 494 kts | 178° |
| 2026-05-04 13:00 | 31.95652 | 3.85838 | 37011 ft | 494 kts | 178° |
| 2026-05-04 13:01 | 31.88858 | 3.87083 | 37003 ft | 494 kts | 178° |
| 2026-05-04 13:01 | 31.82067 | 3.88327 | 37011 ft | 494 kts | 178° |
| 2026-05-04 13:02 | 31.75271 | 3.89569 | 37006 ft | 494 kts | 178° |
| 2026-05-04 13:02 | 31.68468 | 3.90810 | 36986 ft | 494 kts | 178° |
| 2026-05-04 13:03 | 31.61667 | 3.92048 | 36999 ft | 494 kts | 178° |
| 2026-05-04 13:03 | 31.54866 | 3.93285 | 36995 ft | 494 kts | 178° |
| 2026-05-04 13:04 | 31.48060 | 3.94522 | 36991 ft | 494 kts | 178° |
| 2026-05-04 13:04 | 31.41256 | 3.95756 | 36986 ft | 494 kts | 178° |
| 2026-05-04 13:05 | 31.34469 | 3.96985 | 36983 ft | 494 kts | 178° |
| 2026-05-04 13:05 | 31.27670 | 3.98214 | 36988 ft | 494 kts | 178° |
| 2026-05-04 13:06 | 31.20906 | 3.99436 | 36989 ft | 494 kts | 178° |
| 2026-05-04 13:06 | 31.14067 | 4.00671 | 36984 ft | 495 kts | 178° |
| 2026-05-04 13:07 | 31.07307 | 4.01889 | 36983 ft | 494 kts | 178° |
| 2026-05-04 13:07 | 31.00508 | 4.03111 | 36982 ft | 495 kts | 178° |
| 2026-05-04 13:08 | 30.94805 | 4.04134 | 36978 ft | 495 kts | 178° |
| 2026-05-04 13:08 | 30.87997 | 4.05355 | 36976 ft | 495 kts | 178° |
| 2026-05-04 13:09 | 30.81205 | 4.06571 | 36972 ft | 495 kts | 178° |
| 2026-05-04 13:09 | 30.74403 | 4.07787 | 36973 ft | 495 kts | 178° |
| 2026-05-04 13:10 | 30.67590 | 4.09003 | 36970 ft | 495 kts | 178° |
| 2026-05-04 13:10 | 30.60774 | 4.10219 | 36967 ft | 495 kts | 178° |
| 2026-05-04 13:11 | 30.53967 | 4.11431 | 36965 ft | 495 kts | 178° |
| 2026-05-04 13:11 | 30.47148 | 4.12644 | 36963 ft | 495 kts | 178° |
| 2026-05-04 13:12 | 30.40381 | 4.13845 | 36964 ft | 495 kts | 178° |
| 2026-05-04 13:12 | 30.33558 | 4.15056 | 36959 ft | 495 kts | 178° |
| 2026-05-04 13:13 | 30.26741 | 4.16262 | 36955 ft | 496 kts | 179° |
| 2026-05-04 13:13 | 30.19928 | 4.17467 | 36958 ft | 496 kts | 179° |
| 2026-05-04 13:14 | 30.13104 | 4.18671 | 36944 ft | 496 kts | 179° |
| 2026-05-04 13:14 | 30.06291 | 4.19872 | 36959 ft | 496 kts | 179° |
| 2026-05-04 13:15 | 29.99459 | 4.21075 | 36958 ft | 496 kts | 179° |
| 2026-05-04 13:15 | 29.92637 | 4.22273 | 36948 ft | 496 kts | 179° |
| 2026-05-04 13:16 | 29.85805 | 4.23473 | 36948 ft | 496 kts | 179° |
| 2026-05-04 13:16 | 29.78972 | 4.24671 | 36947 ft | 496 kts | 179° |
| 2026-05-04 13:17 | 29.72146 | 4.25867 | 36949 ft | 496 kts | 179° |
| 2026-05-04 13:17 | 29.65318 | 4.27073 | 36948 ft | 497 kts | 179° |
| 2026-05-04 13:18 | 29.58478 | 4.28297 | 36943 ft | 497 kts | 179° |
| 2026-05-04 13:18 | 29.51643 | 4.29519 | 36946 ft | 497 kts | 179° |
| 2026-05-04 13:19 | 29.44846 | 4.30728 | 36942 ft | 497 kts | 179° |
| 2026-05-04 13:19 | 29.38045 | 4.31935 | 36939 ft | 497 kts | 179° |
| 2026-05-04 13:20 | 29.31146 | 4.33157 | 36942 ft | 498 kts | 179° |
| 2026-05-04 13:20 | 29.24309 | 4.34368 | 36944 ft | 498 kts | 180° |
| 2026-05-04 13:21 | 29.17450 | 4.35581 | 36945 ft | 498 kts | 180° |
| 2026-05-04 13:21 | 29.10596 | 4.36791 | 36944 ft | 499 kts | 180° |
| 2026-05-04 13:22 | 29.03732 | 4.38000 | 36942 ft | 499 kts | 180° |
| 2026-05-04 13:22 | 28.96868 | 4.39210 | 36936 ft | 500 kts | 180° |
| 2026-05-04 13:23 | 28.89996 | 4.40418 | 36936 ft | 500 kts | 180° |
| 2026-05-04 13:23 | 28.83111 | 4.41626 | 36932 ft | 500 kts | 180° |
| 2026-05-04 13:24 | 28.76237 | 4.42831 | 36930 ft | 501 kts | 180° |
| 2026-05-04 13:24 | 28.69333 | 4.44040 | 36929 ft | 501 kts | 180° |
| 2026-05-04 13:25 | 28.58976 | 4.45851 | 36927 ft | 502 kts | 180° |
| 2026-05-04 13:25 | 28.52079 | 4.47055 | 36933 ft | 502 kts | 180° |
| 2026-05-04 13:26 | 28.45151 | 4.48273 | 36919 ft | 503 kts | 180° |
| 2026-05-04 13:26 | 28.38236 | 4.49518 | 36927 ft | 504 kts | 180° |
| 2026-05-04 13:27 | 28.31310 | 4.50765 | 36916 ft | 504 kts | 180° |
| 2026-05-04 13:27 | 28.24379 | 4.52007 | 36922 ft | 504 kts | 180° |
| 2026-05-04 13:28 | 28.17481 | 4.53238 | 36917 ft | 505 kts | 180° |
| 2026-05-04 13:28 | 28.10537 | 4.54476 | 36914 ft | 506 kts | 179° |
| 2026-05-04 13:29 | 28.03539 | 4.55721 | 36908 ft | 506 kts | 179° |
| 2026-05-04 13:29 | 27.96609 | 4.56954 | 36910 ft | 507 kts | 179° |
| 2026-05-04 13:30 | 27.89642 | 4.58193 | 36907 ft | 507 kts | 179° |
| 2026-05-04 13:30 | 27.82668 | 4.59430 | 36909 ft | 507 kts | 179° |
| 2026-05-04 13:31 | 27.75694 | 4.60666 | 36905 ft | 508 kts | 179° |
| 2026-05-04 13:31 | 27.68706 | 4.61902 | 36900 ft | 508 kts | 179° |
| 2026-05-04 13:32 | 27.61726 | 4.63137 | 36897 ft | 508 kts | 179° |
| 2026-05-04 13:32 | 27.54741 | 4.64371 | 36892 ft | 508 kts | 179° |
| 2026-05-04 13:33 | 27.47757 | 4.65601 | 36889 ft | 508 kts | 179° |
| 2026-05-04 13:33 | 27.40777 | 4.66830 | 36889 ft | 508 kts | 179° |
| 2026-05-04 13:34 | 27.33788 | 4.68060 | 36895 ft | 508 kts | 179° |
| 2026-05-04 13:34 | 27.26812 | 4.69286 | 36885 ft | 507 kts | 179° |
| 2026-05-04 13:35 | 27.16348 | 4.71120 | 36872 ft | 507 kts | 179° |
| 2026-05-04 13:36 | 27.09378 | 4.72339 | 36879 ft | 507 kts | 179° |
| 2026-05-04 13:36 | 27.02436 | 4.73552 | 36877 ft | 507 kts | 179° |
| 2026-05-04 13:37 | 26.95421 | 4.74777 | 36874 ft | 507 kts | 179° |
| 2026-05-04 13:37 | 26.88444 | 4.75995 | 36871 ft | 507 kts | 178° |
| 2026-05-04 13:38 | 26.81522 | 4.77201 | 36868 ft | 507 kts | 178° |
| 2026-05-04 13:38 | 26.74551 | 4.78413 | 36866 ft | 507 kts | 178° |
| 2026-05-04 13:39 | 26.67578 | 4.79624 | 36866 ft | 507 kts | 178° |
| 2026-05-04 13:39 | 26.60598 | 4.80834 | 36863 ft | 507 kts | 178° |
| 2026-05-04 13:40 | 26.53617 | 4.82046 | 36866 ft | 507 kts | 178° |
| 2026-05-04 13:40 | 26.46638 | 4.83253 | 36868 ft | 507 kts | 178° |
| 2026-05-04 13:41 | 26.39674 | 4.84458 | 36867 ft | 507 kts | 178° |
| 2026-05-04 13:41 | 26.32699 | 4.85663 | 36868 ft | 507 kts | 178° |
| 2026-05-04 13:42 | 26.22232 | 4.87466 | 36866 ft | 507 kts | 178° |
| 2026-05-04 13:42 | 26.15259 | 4.88664 | 36868 ft | 507 kts | 178° |
| 2026-05-04 13:43 | 26.08292 | 4.89865 | 36871 ft | 506 kts | 178° |
| 2026-05-04 13:43 | 26.01326 | 4.91061 | 36870 ft | 507 kts | 178° |
| 2026-05-04 13:44 | 25.94354 | 4.92256 | 36872 ft | 507 kts | 178° |
| 2026-05-04 13:44 | 25.87377 | 4.93451 | 36872 ft | 507 kts | 178° |
| 2026-05-04 13:45 | 25.80400 | 4.94645 | 36873 ft | 507 kts | 178° |
| 2026-05-04 13:45 | 25.73425 | 4.95838 | 36871 ft | 507 kts | 178° |
| 2026-05-04 13:46 | 25.66486 | 4.97022 | 36870 ft | 508 kts | 178° |
| 2026-05-04 13:46 | 25.59506 | 4.98213 | 36868 ft | 508 kts | 178° |
| 2026-05-04 13:47 | 25.52526 | 4.99401 | 36863 ft | 508 kts | 178° |
| 2026-05-04 13:47 | 25.45538 | 5.00590 | 36865 ft | 508 kts | 178° |
| 2026-05-04 13:48 | 25.38552 | 5.01777 | 36863 ft | 508 kts | 178° |
| 2026-05-04 13:48 | 25.31562 | 5.02963 | 36866 ft | 508 kts | 178° |
| 2026-05-04 13:49 | 25.24564 | 5.04149 | 36869 ft | 508 kts | 178° |
| 2026-05-04 13:49 | 25.17558 | 5.05336 | 36871 ft | 508 kts | 178° |
| 2026-05-04 13:50 | 25.10562 | 5.06519 | 36876 ft | 509 kts | 178° |